CheckWX is a tool to help pilots better visualize weather data.  It is not intended as a substitute for an official pre-flight weather briefing.

04:57:06 UTC

KADH METAR
Ada Regional Airport
Ada, Oklahoma, USA
Current

42 mins ago

KADH 240415Z AUTO 00000KT 10SM CLR 20/16 A3017 RMK AO2
Observed
Jul-24 @ 04:15 UTC
Visibility
10 SM
Flight Rules
VFR
Cloud Levels
  • Clear skies
Temperature
20°C / 68°F
Dewpoint
16°C / 61°F
Humidity
78%
Altimeter
30.17" Hg
Pressure
1021.72 hPa
Previous

1 hour ago

KADH 240355Z AUTO 00000KT 10SM CLR 21/16 A3017 RMK AO2
Observed
Jul-24 @ 03:55 UTC
Visibility
10 SM
Flight Rules
VFR
Cloud Levels
  • Clear skies
Temperature
21°C / 70°F
Dewpoint
16°C / 61°F
Humidity
73%
Altimeter
30.17" Hg
Pressure
1021.72 hPa
Previous

1 hour ago

KADH 240335Z AUTO 03003KT 10SM CLR 21/16 A3017 RMK AO2
Observed
Jul-24 @ 03:35 UTC
Wind
  • 030° at 3 KTS
Visibility
10 SM
Flight Rules
VFR
Cloud Levels
  • Clear skies
Temperature
21°C / 70°F
Dewpoint
16°C / 61°F
Humidity
73%
Altimeter
30.17" Hg
Pressure
1021.72 hPa